Uniondale, NY

4:49 PM EDT on September 22, 2014 (GMT -0400)
North Merrick, NY | Change Station
CLOSE
Current Station
Personal Weather Station
Location: Merrick, NY
Elevation: 55 ft
Nearby Weather Stations
Active Advisory: Coastal Hazard Statement

Elev 55 ft 40.70 °N, 73.56 °W | Updated 7 minutes ago

Partly Cloudy
Partly Cloudy
71.1 °F
Feels Like 77 °F
N
3.0
Wind Variable Wind from WNW
Gusts 12.0 mph

Today
High -- | Low -- °F
--% Chance of Precip.
Yesterday
High -- | Low -- °F
Precip. -- in
6:41 AM 6:51 PM
Waning Crescent, 2% visible
Pressure 29.91 in
Visibility 10.0 miles
Clouds Few 5000 ft
Heat Index 77 °F
Dew Point 50 °F
Humidity 47%
Rainfall 0.02 in
Snow Depth Not available.
UV 3 out of 12
Pollen 3.30 out of 12
Air Quality Not available.
Flu Activity Not available.
METAR KFRG 221953Z 32009G18KT 10SM FEW050 22/09 A2991 RMK AO2 SLP128 T02170089

More Conditions Fewer Conditions

Pressure 29.91 in
Visibility 10.0 miles
Clouds Few 5000 ft
Heat Index 77 °F
Dew Point 50 °F
Humidity 47%
Rainfall 0.02 in
Snow Depth Not available.
UV 3 out of 12
Pollen 3.30 out of 12
Air Quality Not available.
Flu Activity Not available.
METAR KFRG 221953Z 32009G18KT 10SM FEW050 22/09 A2991 RMK AO2 SLP128 T02170089

More Conditions Fewer Conditions

10-Day Weather Forecast

Almanac

Astronomy

Sep. 22, 2014 Rise Set
Actual Time 6:41 AM EDT 6:51 PM EDT
Civil Twilight 6:14 AM EDT 7:18 PM EDT
Nautical Twilight 5:42 AM EDT 7:50 PM EDT
Astronomical Twilight 5:09 AM EDT 8:23 PM EDT
Moon 5:07 AM EDT 5:58 PM EDT
Length of Visible Light 13h 04m
Length of Day
12h 09m
Tomorrow will be 2m 41s shorter.
Waning Crescent, 2% of the Moon is Illuminated
Today
Waning Crescent
Sep 24
New
Oct 1
First Quarter
Oct 8
Full
Oct 15
Last Quarter

Today's Extremes

State Highs State Lows

Community

WunderPhotos

Upload Photos

1,755,522 photos uploaded!

WunderBlogs® & News

Nearby

Snow Depth

Station Depth Elevation
No new snow has been reported.

Earthquake Activity

City Distance Mag. Time & Date
No recent earthquake activity has been reported nearby.
Minimum magnitude displayed is 2.5.

Coastal Water Temperatures

Place Temperature
No Stations Reporting

Nearby Weather Stations